sensor_id;sensor_type;location;lat;lon;timestamp;pressure;altitude;pressure_sealevel;temperature;humidity
51313;BME280;37397;53.226;10.400;2023-09-30T00:00:00;101763.81;;;17.41;69.09
51313;BME280;37397;53.226;10.400;2023-09-30T00:02:36;101772.75;;;17.43;69.23
51313;BME280;37397;53.226;10.400;2023-09-30T00:05:03;101772.19;;;17.39;69.18
51313;BME280;37397;53.226;10.400;2023-09-30T00:07:31;101767.94;;;17.34;69.08
51313;BME280;37397;53.226;10.400;2023-09-30T00:09:58;101780.28;;;17.35;68.98
51313;BME280;37397;53.226;10.400;2023-09-30T00:12:26;101781.28;;;17.31;69.50
51313;BME280;37397;53.226;10.400;2023-09-30T00:14:53;101784.69;;;17.30;69.28
51313;BME280;37397;53.226;10.400;2023-09-30T00:17:20;101786.47;;;17.27;69.39
51313;BME280;37397;53.226;10.400;2023-09-30T00:19:47;101790.03;;;17.17;69.32
51313;BME280;37397;53.226;10.400;2023-09-30T00:22:14;101798.97;;;17.19;69.37
51313;BME280;37397;53.226;10.400;2023-09-30T00:24:40;101798.97;;;17.19;69.56
51313;BME280;37397;53.226;10.400;2023-09-30T00:27:07;101794.19;;;17.16;69.61
51313;BME280;37397;53.226;10.400;2023-09-30T00:29:34;101799.91;;;17.10;69.63
51313;BME280;37397;53.226;10.400;2023-09-30T00:32:01;101815.13;;;17.10;69.49
51313;BME280;37397;53.226;10.400;2023-09-30T00:34:32;101813.22;;;17.07;69.56
51313;BME280;37397;53.226;10.400;2023-09-30T00:36:59;101821.88;;;17.07;69.22
51313;BME280;37397;53.226;10.400;2023-09-30T00:39:26;101813.97;;;17.02;69.22
51313;BME280;37397;53.226;10.400;2023-09-30T00:41:57;101815.25;;;17.01;69.54
51313;BME280;37397;53.226;10.400;2023-09-30T00:44:27;101823.91;;;17.01;69.78
51313;BME280;37397;53.226;10.400;2023-09-30T00:46:54;101820.72;;;16.99;69.68
51313;BME280;37397;53.226;10.400;2023-09-30T00:49:23;101811.78;;;16.97;69.72
51313;BME280;37397;53.226;10.400;2023-09-30T00:51:51;101821.72;;;16.96;69.93
51313;BME280;37397;53.226;10.400;2023-09-30T00:54:18;101818.56;;;16.94;69.78
51313;BME280;37397;53.226;10.400;2023-09-30T00:56:47;101821.13;;;16.92;70.10
51313;BME280;37397;53.226;10.400;2023-09-30T00:59:15;101819.78;;;16.87;70.05
51313;BME280;37397;53.226;10.400;2023-09-30T01:01:44;101822.94;;;16.89;70.05
51313;BME280;37397;53.226;10.400;2023-09-30T01:04:12;101822.66;;;16.87;70.26
51313;BME280;37397;53.226;10.400;2023-09-30T01:06:39;101828.94;;;16.86;70.28
51313;BME280;37397;53.226;10.400;2023-09-30T01:09:07;101815.50;;;16.83;70.46
51313;BME280;37397;53.226;10.400;2023-09-30T01:11:34;101825.44;;;16.82;70.54
51313;BME280;37397;53.226;10.400;2023-09-30T01:14:01;101828.81;;;16.80;70.45
51313;BME280;37397;53.226;10.400;2023-09-30T01:16:28;101823.53;;;16.78;70.16
51313;BME280;37397;53.226;10.400;2023-09-30T01:18:55;101817.22;;;16.74;70.29
51313;BME280;37397;53.226;10.400;2023-09-30T01:21:23;101824.53;;;16.75;70.39
51313;BME280;37397;53.226;10.400;2023-09-30T01:23:50;101823.75;;;16.75;70.32
51313;BME280;37397;53.226;10.400;2023-09-30T01:26:16;101821.38;;;16.73;70.50
51313;BME280;37397;53.226;10.400;2023-09-30T01:28:43;101815.00;;;16.69;70.68
51313;BME280;37397;53.226;10.400;2023-09-30T01:31:10;101814.22;;;16.69;70.50
51313;BME280;37397;53.226;10.400;2023-09-30T01:33:36;101833.91;;;16.70;70.47
51313;BME280;37397;53.226;10.400;2023-09-30T01:36:03;101821.59;;;16.70;70.72
51313;BME280;37397;53.226;10.400;2023-09-30T01:38:30;101827.53;;;16.66;70.52
51313;BME280;37397;53.226;10.400;2023-09-30T01:40:56;101824.38;;;16.64;70.81
51313;BME280;37397;53.226;10.400;2023-09-30T01:43:26;101830.94;;;16.65;70.43
51313;BME280;37397;53.226;10.400;2023-09-30T01:45:53;101827.75;;;16.63;70.41
51313;BME280;37397;53.226;10.400;2023-09-30T01:48:20;101822.97;;;16.59;70.55
51313;BME280;37397;53.226;10.400;2023-09-30T01:50:46;101835.00;;;16.58;70.27
51313;BME280;37397;53.226;10.400;2023-09-30T01:53:14;101823.41;;;16.52;70.51
51313;BME280;37397;53.226;10.400;2023-09-30T01:55:41;101828.97;;;16.56;70.77
51313;BME280;37397;53.226;10.400;2023-09-30T01:58:07;101840.00;;;16.57;70.42
51313;BME280;37397;53.226;10.400;2023-09-30T02:00:34;101838.09;;;16.54;70.43
51313;BME280;37397;53.226;10.400;2023-09-30T02:03:01;101841.97;;;16.51;70.55
51313;BME280;37397;53.226;10.400;2023-09-30T02:05:29;101840.09;;;16.48;70.51
51313;BME280;37397;53.226;10.400;2023-09-30T02:07:55;101850.22;;;16.44;70.56
51313;BME280;37397;53.226;10.400;2023-09-30T02:10:22;101855.00;;;16.47;70.64
51313;BME280;37397;53.226;10.400;2023-09-30T02:12:50;101844.47;;;16.44;70.79
51313;BME280;37397;53.226;10.400;2023-09-30T02:15:17;101843.97;;;16.45;71.04
51313;BME280;37397;53.226;10.400;2023-09-30T02:17:43;101846.56;;;16.43;70.81
51313;BME280;37397;53.226;10.400;2023-09-30T02:20:13;101854.41;;;16.43;70.83
51313;BME280;37397;53.226;10.400;2023-09-30T02:22:43;101857.00;;;16.40;70.79
51313;BME280;37397;53.226;10.400;2023-09-30T02:25:13;101853.81;;;16.38;70.57
51313;BME280;37397;53.226;10.400;2023-09-30T02:27:43;101858.00;;;16.37;70.69
51313;BME280;37397;53.226;10.400;2023-09-30T02:30:11;101857.69;;;16.35;70.76
51313;BME280;37397;53.226;10.400;2023-09-30T02:32:41;101857.91;;;16.32;70.74
51313;BME280;37397;53.226;10.400;2023-09-30T02:35:09;101845.28;;;16.29;70.68
51313;BME280;37397;53.226;10.400;2023-09-30T02:37:38;101847.06;;;16.27;70.84
51313;BME280;37397;53.226;10.400;2023-09-30T02:40:07;101849.47;;;16.28;70.71
51313;BME280;37397;53.226;10.400;2023-09-30T02:42:40;101848.84;;;16.24;70.77
51313;BME280;37397;53.226;10.400;2023-09-30T02:45:08;101861.19;;;16.25;70.66
51313;BME280;37397;53.226;10.400;2023-09-30T02:47:37;101857.19;;;16.22;70.72
51313;BME280;37397;53.226;10.400;2023-09-30T02:50:06;101852.72;;;16.21;70.68
51313;BME280;37397;53.226;10.400;2023-09-30T02:52:34;101853.41;;;16.16;70.84
51313;BME280;37397;53.226;10.400;2023-09-30T02:55:03;101848.66;;;16.13;71.02
51313;BME280;37397;53.226;10.400;2023-09-30T02:57:29;101861.78;;;16.14;70.79
51313;BME280;37397;53.226;10.400;2023-09-30T02:59:58;101864.94;;;16.16;70.84
51313;BME280;37397;53.226;10.400;2023-09-30T03:02:26;101857.28;;;16.13;70.86
51313;BME280;37397;53.226;10.400;2023-09-30T03:04:53;101861.16;;;16.10;70.63
51313;BME280;37397;53.226;10.400;2023-09-30T03:07:20;101858.47;;;16.06;70.95
51313;BME280;37397;53.226;10.400;2023-09-30T03:09:47;101860.88;;;16.08;70.72
51313;BME280;37397;53.226;10.400;2023-09-30T03:12:14;101864.44;;;16.02;70.58
51313;BME280;37397;53.226;10.400;2023-09-30T03:14:41;101858.97;;;16.04;70.82
51313;BME280;37397;53.226;10.400;2023-09-30T03:17:09;101868.09;;;16.03;70.88
51313;BME280;37397;53.226;10.400;2023-09-30T03:19:38;101860.94;;;15.98;70.88
51313;BME280;37397;53.226;10.400;2023-09-30T03:22:05;101867.81;;;16.01;70.82
51313;BME280;37397;53.226;10.400;2023-09-30T03:24:33;101872.47;;;15.98;70.78
51313;BME280;37397;53.226;10.400;2023-09-30T03:27:01;101872.66;;;15.95;71.00
51313;BME280;37397;53.226;10.400;2023-09-30T03:29:28;101874.44;;;15.92;70.73
51313;BME280;37397;53.226;10.400;2023-09-30T03:31:54;101871.28;;;15.90;70.78
51313;BME280;37397;53.226;10.400;2023-09-30T03:34:21;101876.25;;;15.90;70.94
51313;BME280;37397;53.226;10.400;2023-09-30T03:36:47;101865.22;;;15.88;71.18
51313;BME280;37397;53.226;10.400;2023-09-30T03:39:14;101863.31;;;15.85;71.06
51313;BME280;37397;53.226;10.400;2023-09-30T03:41:42;101866.50;;;15.87;70.92
51313;BME280;37397;53.226;10.400;2023-09-30T03:44:08;101858.56;;;15.82;71.07
51313;BME280;37397;53.226;10.400;2023-09-30T03:46:35;101863.53;;;15.81;71.13
51313;BME280;37397;53.226;10.400;2023-09-30T03:49:01;101858.75;;;15.78;71.08
51313;BME280;37397;53.226;10.400;2023-09-30T03:51:29;101865.28;;;15.79;71.11
51313;BME280;37397;53.226;10.400;2023-09-30T03:53:56;101869.47;;;15.78;71.16
51313;BME280;37397;53.226;10.400;2023-09-30T03:56:23;101858.91;;;15.75;71.15
51313;BME280;37397;53.226;10.400;2023-09-30T03:58:50;101860.50;;;15.76;71.18
51313;BME280;37397;53.226;10.400;2023-09-30T04:01:16;101870.44;;;15.75;71.18
51313;BME280;37397;53.226;10.400;2023-09-30T04:03:43;101861.47;;;15.73;71.03
51313;BME280;37397;53.226;10.400;2023-09-30T04:06:10;101854.84;;;15.66;70.86
51313;BME280;37397;53.226;10.400;2023-09-30T04:08:38;101864.53;;;15.69;70.81
51313;BME280;37397;53.226;10.400;2023-09-30T04:11:05;101863.47;;;15.66;70.72
51313;BME280;37397;53.226;10.400;2023-09-30T04:13:32;101866.50;;;15.63;70.90
51313;BME280;37397;53.226;10.400;2023-09-30T04:15:59;101867.00;;;15.61;70.87
51313;BME280;37397;53.226;10.400;2023-09-30T04:18:26;101865.91;;;15.59;70.97
51313;BME280;37397;53.226;10.400;2023-09-30T04:20:53;101856.66;;;15.55;71.08
51313;BME280;37397;53.226;10.400;2023-09-30T04:23:20;101868.97;;;15.55;70.89
51313;BME280;37397;53.226;10.400;2023-09-30T04:25:47;101868.97;;;15.55;71.03
51313;BME280;37397;53.226;10.400;2023-09-30T04:28:13;101866.28;;;15.52;71.05
51313;BME280;37397;53.226;10.400;2023-09-30T04:30:40;101871.25;;;15.51;70.85
51313;BME280;37397;53.226;10.400;2023-09-30T04:33:08;101882.47;;;15.49;71.02
51313;BME280;37397;53.226;10.400;2023-09-30T04:35:34;101878.75;;;15.48;71.00
51313;BME280;37397;53.226;10.400;2023-09-30T04:38:02;101873.50;;;15.47;70.98
51313;BME280;37397;53.226;10.400;2023-09-30T04:40:30;101872.91;;;15.43;71.08
51313;BME280;37397;53.226;10.400;2023-09-30T04:42:58;101885.69;;;15.42;70.86
51313;BME280;37397;53.226;10.400;2023-09-30T04:45:25;101900.06;;;15.42;70.99
51313;BME280;37397;53.226;10.400;2023-09-30T04:47:53;101883.78;;;15.39;71.03
51313;BME280;37397;53.226;10.400;2023-09-30T04:50:20;101901.88;;;15.39;71.22
51313;BME280;37397;53.226;10.400;2023-09-30T04:52:51;101898.19;;;15.39;71.31
51313;BME280;37397;53.226;10.400;2023-09-30T04:55:18;101888.13;;;15.34;71.24
51313;BME280;37397;53.226;10.400;2023-09-30T04:57:46;101902.03;;;15.36;71.38
51313;BME280;37397;53.226;10.400;2023-09-30T05:00:16;101907.19;;;15.31;71.44
51313;BME280;37397;53.226;10.400;2023-09-30T05:02:51;101903.81;;;15.33;71.25
51313;BME280;37397;53.226;10.400;2023-09-30T05:05:21;101899.34;;;15.32;71.33
51313;BME280;37397;53.226;10.400;2023-09-30T05:07:48;101896.66;;;15.28;71.33
51313;BME280;37397;53.226;10.400;2023-09-30T05:10:15;101897.63;;;15.25;71.36
51313;BME280;37397;53.226;10.400;2023-09-30T05:12:43;101901.63;;;15.28;71.33
51313;BME280;37397;53.226;10.400;2023-09-30T05:15:14;101889.50;;;15.24;71.42
51313;BME280;37397;53.226;10.400;2023-09-30T05:17:46;101890.28;;;15.24;71.35
51313;BME280;37397;53.226;10.400;2023-09-30T05:20:14;101893.63;;;15.23;71.52
51313;BME280;37397;53.226;10.400;2023-09-30T05:22:44;101899.09;;;15.21;71.49
51313;BME280;37397;53.226;10.400;2023-09-30T05:25:16;101907.22;;;15.22;71.42
51313;BME280;37397;53.226;10.400;2023-09-30T05:27:44;101907.91;;;15.17;71.48
51313;BME280;37397;53.226;10.400;2023-09-30T05:30:11;101903.41;;;15.16;71.49
51313;BME280;37397;53.226;10.400;2023-09-30T05:32:38;101905.03;;;15.17;71.55
51313;BME280;37397;53.226;10.400;2023-09-30T05:35:06;101914.44;;;15.18;71.56
51313;BME280;37397;53.226;10.400;2023-09-30T05:37:43;101907.28;;;15.13;71.69
51313;BME280;37397;53.226;10.400;2023-09-30T05:40:11;101923.56;;;15.16;71.88
51313;BME280;37397;53.226;10.400;2023-09-30T05:42:54;101914.13;;;15.16;71.97
51313;BME280;37397;53.226;10.400;2023-09-30T05:45:22;101919.41;;;15.17;72.02
51313;BME280;37397;53.226;10.400;2023-09-30T05:47:50;101929.59;;;15.18;72.27
51313;BME280;37397;53.226;10.400;2023-09-30T05:50:19;101928.03;;;15.17;72.08
51313;BME280;37397;53.226;10.400;2023-09-30T05:52:51;101931.69;;;15.18;72.16
51313;BME280;37397;53.226;10.400;2023-09-30T05:55:17;101931.88;;;15.14;71.96
51313;BME280;37397;53.226;10.400;2023-09-30T05:57:50;101930.13;;;15.17;72.05
51313;BME280;37397;53.226;10.400;2023-09-30T06:00:18;101937.44;;;15.18;72.17
51313;BME280;37397;53.226;10.400;2023-09-30T06:02:57;101936.03;;;15.13;72.16
51313;BME280;37397;53.226;10.400;2023-09-30T06:05:24;101929.00;;;15.14;72.33
51313;BME280;37397;53.226;10.400;2023-09-30T06:07:56;101935.06;;;15.16;72.38
51313;BME280;37397;53.226;10.400;2023-09-30T06:10:23;101945.28;;;15.17;72.38
51313;BME280;37397;53.226;10.400;2023-09-30T06:12:53;101950.53;;;15.19;72.32
51313;BME280;37397;53.226;10.400;2023-09-30T06:15:24;101952.31;;;15.16;72.48
51313;BME280;37397;53.226;10.400;2023-09-30T06:17:55;101964.94;;;15.19;72.36
51313;BME280;37397;53.226;10.400;2023-09-30T06:20:22;101969.56;;;15.16;72.36
51313;BME280;37397;53.226;10.400;2023-09-30T06:22:52;101976.91;;;15.17;72.45
51313;BME280;37397;53.226;10.400;2023-09-30T06:25:22;101984.22;;;15.18;72.54
51313;BME280;37397;53.226;10.400;2023-09-30T06:27:51;101970.38;;;15.17;72.42
51313;BME280;37397;53.226;10.400;2023-09-30T06:30:18;101983.44;;;15.18;72.50
51313;BME280;37397;53.226;10.400;2023-09-30T06:32:48;101971.16;;;15.17;72.43
51313;BME280;37397;53.226;10.400;2023-09-30T06:35:15;101979.31;;;15.19;72.48
51313;BME280;37397;53.226;10.400;2023-09-30T06:37:42;101985.84;;;15.19;72.53
51313;BME280;37397;53.226;10.400;2023-09-30T06:40:10;101982.97;;;15.19;72.62
51313;BME280;37397;53.226;10.400;2023-09-30T06:42:40;101979.50;;;15.15;72.46
51313;BME280;37397;53.226;10.400;2023-09-30T06:45:07;101987.63;;;15.17;72.62
51313;BME280;37397;53.226;10.400;2023-09-30T06:47:35;101995.75;;;15.18;72.62
51313;BME280;37397;53.226;10.400;2023-09-30T06:50:04;101984.22;;;15.18;72.42
51313;BME280;37397;53.226;10.400;2023-09-30T06:52:35;101997.34;;;15.19;72.35
51313;BME280;37397;53.226;10.400;2023-09-30T06:55:02;101990.00;;;15.18;72.37
51313;BME280;37397;53.226;10.400;2023-09-30T06:57:33;102005.66;;;15.17;72.49
51313;BME280;37397;53.226;10.400;2023-09-30T07:00:00;102005.66;;;15.17;72.50
51313;BME280;37397;53.226;10.400;2023-09-30T07:02:26;102016.53;;;15.13;72.66
51313;BME280;37397;53.226;10.400;2023-09-30T07:04:53;102011.91;;;15.16;72.53
51313;BME280;37397;53.226;10.400;2023-09-30T07:07:20;102013.00;;;15.18;72.61
51313;BME280;37397;53.226;10.400;2023-09-30T07:09:46;102009.50;;;15.14;72.65
51313;BME280;37397;53.226;10.400;2023-09-30T07:12:13;102018.75;;;15.18;72.70
51313;BME280;37397;53.226;10.400;2023-09-30T07:14:39;102017.66;;;15.16;72.68
51313;BME280;37397;53.226;10.400;2023-09-30T07:17:06;102015.88;;;15.18;72.71
51313;BME280;37397;53.226;10.400;2023-09-30T07:19:32;102023.22;;;15.19;72.73
51313;BME280;37397;53.226;10.400;2023-09-30T07:21:59;102033.47;;;15.20;72.66
51313;BME280;37397;53.226;10.400;2023-09-30T07:24:31;102026.59;;;15.18;72.83
51313;BME280;37397;53.226;10.400;2023-09-30T07:26:57;102029.28;;;15.21;72.77
51313;BME280;37397;53.226;10.400;2023-09-30T07:29:26;102042.09;;;15.20;72.93
51313;BME280;37397;53.226;10.400;2023-09-30T07:31:52;102043.66;;;15.21;72.91
51313;BME280;37397;53.226;10.400;2023-09-30T07:34:19;102039.22;;;15.20;73.00
51313;BME280;37397;53.226;10.400;2023-09-30T07:36:46;102036.00;;;15.18;73.03
51313;BME280;37397;53.226;10.400;2023-09-30T07:39:13;102037.28;;;15.17;73.19
51313;BME280;37397;53.226;10.400;2023-09-30T07:41:39;102041.41;;;15.25;73.17
51313;BME280;37397;53.226;10.400;2023-09-30T07:44:06;102035.38;;;15.23;73.29
51313;BME280;37397;53.226;10.400;2023-09-30T07:46:32;102041.41;;;15.25;73.33
51313;BME280;37397;53.226;10.400;2023-09-30T07:48:59;102040.63;;;15.25;73.38
51313;BME280;37397;53.226;10.400;2023-09-30T07:51:26;102046.19;;;15.28;73.48
51313;BME280;37397;53.226;10.400;2023-09-30T07:53:53;102040.44;;;15.28;73.43
51313;BME280;37397;53.226;10.400;2023-09-30T07:56:20;102045.72;;;15.30;73.39
51313;BME280;37397;53.226;10.400;2023-09-30T07:58:48;102047.16;;;15.35;73.56
51313;BME280;37397;53.226;10.400;2023-09-30T08:01:14;102033.44;;;15.29;73.64
51313;BME280;37397;53.226;10.400;2023-09-30T08:03:41;102044.25;;;15.35;73.64
51313;BME280;37397;53.226;10.400;2023-09-30T08:06:08;102048.22;;;15.37;73.70
51313;BME280;37397;53.226;10.400;2023-09-30T08:08:36;102039.78;;;15.34;73.76
51313;BME280;37397;53.226;10.400;2023-09-30T08:11:02;102044.88;;;15.39;73.70
51313;BME280;37397;53.226;10.400;2023-09-30T08:13:29;102040.25;;;15.41;73.86
51313;BME280;37397;53.226;10.400;2023-09-30T08:15:55;102038.16;;;15.42;73.86
51313;BME280;37397;53.226;10.400;2023-09-30T08:18:22;102039.44;;;15.41;73.60
51313;BME280;37397;53.226;10.400;2023-09-30T08:20:48;102044.06;;;15.47;73.85
51313;BME280;37397;53.226;10.400;2023-09-30T08:23:15;102042.94;;;15.45;73.91
51313;BME280;37397;53.226;10.400;2023-09-30T08:25:42;102053.78;;;15.50;73.74
51313;BME280;37397;53.226;10.400;2023-09-30T08:28:09;102059.84;;;15.52;73.86
51313;BME280;37397;53.226;10.400;2023-09-30T08:30:36;102069.59;;;15.55;73.82
51313;BME280;37397;53.226;10.400;2023-09-30T08:33:03;102067.81;;;15.57;73.81
51313;BME280;37397;53.226;10.400;2023-09-30T08:35:37;102079.34;;;15.57;73.85
51313;BME280;37397;53.226;10.400;2023-09-30T08:38:07;102081.72;;;15.59;73.97
51313;BME280;37397;53.226;10.400;2023-09-30T08:40:33;102079.00;;;15.55;73.91
51313;BME280;37397;53.226;10.400;2023-09-30T08:43:00;102078.38;;;15.60;74.04
51313;BME280;37397;53.226;10.400;2023-09-30T08:45:33;102074.19;;;15.61;74.03
51313;BME280;37397;53.226;10.400;2023-09-30T08:47:59;102078.97;;;15.64;73.84
51313;BME280;37397;53.226;10.400;2023-09-30T08:50:33;102082.00;;;15.70;74.07
51313;BME280;37397;53.226;10.400;2023-09-30T08:53:00;102082.78;;;15.71;74.00
51313;BME280;37397;53.226;10.400;2023-09-30T08:55:33;102078.16;;;15.73;74.00
51313;BME280;37397;53.226;10.400;2023-09-30T08:58:00;102085.00;;;15.76;73.99
51313;BME280;37397;53.226;10.400;2023-09-30T09:00:27;102082.47;;;15.78;73.98
51313;BME280;37397;53.226;10.400;2023-09-30T09:02:55;102075.09;;;15.77;74.17
51313;BME280;37397;53.226;10.400;2023-09-30T09:05:21;102085.66;;;15.80;74.08
51313;BME280;37397;53.226;10.400;2023-09-30T09:07:48;102087.22;;;15.81;74.14
51313;BME280;37397;53.226;10.400;2023-09-30T09:10:16;102092.34;;;15.86;74.11
51313;BME280;37397;53.226;10.400;2023-09-30T09:12:54;102101.75;;;15.86;74.02
51313;BME280;37397;53.226;10.400;2023-09-30T09:15:24;102105.75;;;15.89;73.96
51313;BME280;37397;53.226;10.400;2023-09-30T09:17:51;102093.44;;;15.89;74.00
51313;BME280;37397;53.226;10.400;2023-09-30T09:20:22;102101.38;;;15.94;74.16
51313;BME280;37397;53.226;10.400;2023-09-30T09:22:51;102098.03;;;15.95;74.09
51313;BME280;37397;53.226;10.400;2023-09-30T09:25:20;102102.22;;;15.94;73.95
51313;BME280;37397;53.226;10.400;2023-09-30T09:27:50;102095.63;;;15.94;74.14
51313;BME280;37397;53.226;10.400;2023-09-30T09:33:03;102109.19;;;16.02;73.96
51313;BME280;37397;53.226;10.400;2023-09-30T09:35:33;102110.81;;;16.03;74.19
51313;BME280;37397;53.226;10.400;2023-09-30T09:38:05;102107.25;;;16.09;74.09
51313;BME280;37397;53.226;10.400;2023-09-30T09:40:36;102101.97;;;16.07;73.86
51313;BME280;37397;53.226;10.400;2023-09-30T09:43:03;102113.31;;;16.11;73.97
51313;BME280;37397;53.226;10.400;2023-09-30T09:45:36;102105.78;;;16.13;73.92
51313;BME280;37397;53.226;10.400;2023-09-30T09:48:05;102111.06;;;16.15;74.00
51313;BME280;37397;53.226;10.400;2023-09-30T09:50:32;102109.75;;;16.16;74.06
51313;BME280;37397;53.226;10.400;2023-09-30T09:52:59;102108.78;;;16.19;73.91
51313;BME280;37397;53.226;10.400;2023-09-30T09:55:27;102106.19;;;16.21;74.00
51313;BME280;37397;53.226;10.400;2023-09-30T09:57:54;102114.19;;;16.26;73.70
51313;BME280;37397;53.226;10.400;2023-09-30T10:00:23;102110.28;;;16.29;73.80
51313;BME280;37397;53.226;10.400;2023-09-30T10:02:50;102106.13;;;16.30;73.70
51313;BME280;37397;53.226;10.400;2023-09-30T10:05:18;102111.88;;;16.30;73.51
51313;BME280;37397;53.226;10.400;2023-09-30T10:07:47;102121.94;;;16.35;73.65
51313;BME280;37397;53.226;10.400;2023-09-30T10:10:20;102107.25;;;16.33;73.57
51313;BME280;37397;53.226;10.400;2023-09-30T10:12:47;102096.22;;;16.31;73.49
51313;BME280;37397;53.226;10.400;2023-09-30T10:18:10;102104.78;;;16.40;73.27
51313;BME280;37397;53.226;10.400;2023-09-30T10:20:43;102107.78;;;16.46;73.37
51313;BME280;37397;53.226;10.400;2023-09-30T10:25:45;102098.66;;;16.48;73.54
51313;BME280;37397;53.226;10.400;2023-09-30T10:28:38;102107.59;;;16.50;73.54
51313;BME280;37397;53.226;10.400;2023-09-30T10:31:17;102113.66;;;16.52;73.44
51313;BME280;37397;53.226;10.400;2023-09-30T10:36:32;102114.25;;;16.56;73.15
51313;BME280;37397;53.226;10.400;2023-09-30T10:39:00;102123.22;;;16.58;73.15
51313;BME280;37397;53.226;10.400;2023-09-30T10:46:58;102137.25;;;16.65;72.93
51313;BME280;37397;53.226;10.400;2023-09-30T10:51:56;102137.84;;;16.69;72.86
51313;BME280;37397;53.226;10.400;2023-09-30T10:54:24;102141.84;;;16.72;72.86
51313;BME280;37397;53.226;10.400;2023-09-30T10:56:52;102137.69;;;16.73;72.78
51313;BME280;37397;53.226;10.400;2023-09-30T10:59:21;102135.88;;;16.75;72.56
51313;BME280;37397;53.226;10.400;2023-09-30T11:01:49;102134.91;;;16.78;72.63
51313;BME280;37397;53.226;10.400;2023-09-30T11:04:17;102133.91;;;16.82;72.49
51313;BME280;37397;53.226;10.400;2023-09-30T11:06:46;102126.88;;;16.83;72.23
51313;BME280;37397;53.226;10.400;2023-09-30T11:09:20;102115.00;;;16.81;71.91
51313;BME280;37397;53.226;10.400;2023-09-30T11:11:50;102108.25;;;16.84;72.07
51313;BME280;37397;53.226;10.400;2023-09-30T11:14:27;102107.63;;;16.89;72.01
51313;BME280;37397;53.226;10.400;2023-09-30T11:17:00;102119.44;;;16.91;71.89
51313;BME280;37397;53.226;10.400;2023-09-30T11:19:46;102108.41;;;16.89;71.82
51313;BME280;37397;53.226;10.400;2023-09-30T11:22:14;102113.97;;;16.93;71.88
51313;BME280;37397;53.226;10.400;2023-09-30T11:24:41;102116.06;;;16.92;71.49
51313;BME280;37397;53.226;10.400;2023-09-30T11:27:08;102107.91;;;16.91;71.45
51313;BME280;37397;53.226;10.400;2023-09-30T11:29:35;102116.16;;;16.98;71.31
51313;BME280;37397;53.226;10.400;2023-09-30T11:32:02;102116.47;;;17.00;70.98
51313;BME280;37397;53.226;10.400;2023-09-30T11:34:36;102112.28;;;17.01;70.92
51313;BME280;37397;53.226;10.400;2023-09-30T11:37:04;102115.16;;;17.01;71.05
51313;BME280;37397;53.226;10.400;2023-09-30T11:39:32;102110.50;;;17.04;71.15
51313;BME280;37397;53.226;10.400;2023-09-30T11:42:00;102097.38;;;17.03;71.05
51313;BME280;37397;53.226;10.400;2023-09-30T11:44:27;102102.66;;;17.04;71.07
51313;BME280;37397;53.226;10.400;2023-09-30T11:46:58;102111.91;;;17.08;70.79
51313;BME280;37397;53.226;10.400;2023-09-30T11:49:38;102106.13;;;17.08;70.50
51313;BME280;37397;53.226;10.400;2023-09-30T11:52:10;102103.53;;;17.10;70.52
51313;BME280;37397;53.226;10.400;2023-09-30T11:54:44;102094.91;;;17.10;70.28
51313;BME280;37397;53.226;10.400;2023-09-30T11:57:15;102105.94;;;17.12;70.13
51313;BME280;37397;53.226;10.400;2023-09-30T11:59:43;102110.91;;;17.11;70.20
51313;BME280;37397;53.226;10.400;2023-09-30T12:02:12;102107.34;;;17.17;69.70
51313;BME280;37397;53.226;10.400;2023-09-30T12:04:42;102100.25;;;17.18;69.53
51313;BME280;37397;53.226;10.400;2023-09-30T12:07:09;102098.97;;;17.19;69.49
51313;BME280;37397;53.226;10.400;2023-09-30T12:09:37;102102.16;;;17.21;69.37
51313;BME280;37397;53.226;10.400;2023-09-30T12:12:04;102103.75;;;17.22;69.23
51313;BME280;37397;53.226;10.400;2023-09-30T12:14:31;102101.16;;;17.24;69.24
51313;BME280;37397;53.226;10.400;2023-09-30T12:16:58;102091.22;;;17.25;69.41
51313;BME280;37397;53.226;10.400;2023-09-30T12:19:25;102097.78;;;17.25;69.06
51313;BME280;37397;53.226;10.400;2023-09-30T12:21:53;102088.03;;;17.23;68.75
51313;BME280;37397;53.226;10.400;2023-09-30T12:24:20;102086.22;;;17.25;68.76
51313;BME280;37397;53.226;10.400;2023-09-30T12:26:49;102083.13;;;17.29;68.61
51313;BME280;37397;53.226;10.400;2023-09-30T12:29:20;102090.00;;;17.31;68.94
51313;BME280;37397;53.226;10.400;2023-09-30T12:31:50;102098.16;;;17.33;68.75
51313;BME280;37397;53.226;10.400;2023-09-30T12:34:19;102090.50;;;17.30;68.57
51313;BME280;37397;53.226;10.400;2023-09-30T12:36:46;102094.00;;;17.34;68.24
51313;BME280;37397;53.226;10.400;2023-09-30T12:39:14;102095.56;;;17.35;68.05
51313;BME280;37397;53.226;10.400;2023-09-30T12:41:43;102102.94;;;17.36;67.94
51313;BME280;37397;53.226;10.400;2023-09-30T12:44:12;102094.28;;;17.36;68.32
51313;BME280;37397;53.226;10.400;2023-09-30T12:46:39;102089.81;;;17.35;67.81
51313;BME280;37397;53.226;10.400;2023-09-30T12:49:07;102092.19;;;17.37;67.63
51313;BME280;37397;53.226;10.400;2023-09-30T12:51:34;102090.41;;;17.39;67.32
51313;BME280;37397;53.226;10.400;2023-09-30T12:54:01;102091.97;;;17.40;67.50
51313;BME280;37397;53.226;10.400;2023-09-30T12:56:29;102099.34;;;17.41;67.28
51313;BME280;37397;53.226;10.400;2023-09-30T12:58:56;102103.84;;;17.42;66.99
51313;BME280;37397;53.226;10.400;2023-09-30T13:01:23;102098.06;;;17.42;67.17
51313;BME280;37397;53.226;10.400;2023-09-30T13:03:50;102088.59;;;17.42;66.79